sensor_id;sensor_type;location;lat;lon;timestamp;temperature;humidity
1359;DHT22;673;48.098;14.422;2022-07-11T00:02:22;12.60;99.90
1359;DHT22;673;48.098;14.422;2022-07-11T00:04:49;12.60;99.90
1359;DHT22;673;48.098;14.422;2022-07-11T00:07:16;12.60;99.90
1359;DHT22;673;48.098;14.422;2022-07-11T00:09:43;12.60;99.90
1359;DHT22;673;48.098;14.422;2022-07-11T00:12:11;12.60;99.90
1359;DHT22;673;48.098;14.422;2022-07-11T00:14:38;12.70;99.90
1359;DHT22;673;48.098;14.422;2022-07-11T00:17:06;12.60;99.90
1359;DHT22;673;48.098;14.422;2022-07-11T00:19:36;12.60;99.90
1359;DHT22;673;48.098;14.422;2022-07-11T00:22:03;12.60;99.90
1359;DHT22;673;48.098;14.422;2022-07-11T00:24:31;12.60;99.90
1359;DHT22;673;48.098;14.422;2022-07-11T00:26:58;12.60;99.90
1359;DHT22;673;48.098;14.422;2022-07-11T00:29:25;12.60;99.90
1359;DHT22;673;48.098;14.422;2022-07-11T00:31:52;12.60;99.90
1359;DHT22;673;48.098;14.422;2022-07-11T00:34:19;12.60;99.90
1359;DHT22;673;48.098;14.422;2022-07-11T00:36:48;12.60;99.90
1359;DHT22;673;48.098;14.422;2022-07-11T00:39:15;12.60;99.90
1359;DHT22;673;48.098;14.422;2022-07-11T00:41:42;12.60;99.90
1359;DHT22;673;48.098;14.422;2022-07-11T00:44:09;12.60;99.90
1359;DHT22;673;48.098;14.422;2022-07-11T00:46:36;12.60;99.90
1359;DHT22;673;48.098;14.422;2022-07-11T00:49:03;12.60;99.90
1359;DHT22;673;48.098;14.422;2022-07-11T00:51:31;12.50;99.90
1359;DHT22;673;48.098;14.422;2022-07-11T00:54:00;12.60;99.90
1359;DHT22;673;48.098;14.422;2022-07-11T00:56:29;12.50;99.90
1359;DHT22;673;48.098;14.422;2022-07-11T00:58:57;12.50;99.90
1359;DHT22;673;48.098;14.422;2022-07-11T01:01:25;12.50;99.90
1359;DHT22;673;48.098;14.422;2022-07-11T01:03:52;12.50;99.90
1359;DHT22;673;48.098;14.422;2022-07-11T01:06:20;12.50;99.90
1359;DHT22;673;48.098;14.422;2022-07-11T01:08:47;12.50;99.90
1359;DHT22;673;48.098;14.422;2022-07-11T01:11:16;12.40;99.90
1359;DHT22;673;48.098;14.422;2022-07-11T01:13:44;12.30;99.90
1359;DHT22;673;48.098;14.422;2022-07-11T01:16:13;12.30;99.90
1359;DHT22;673;48.098;14.422;2022-07-11T01:18:42;12.20;99.90
1359;DHT22;673;48.098;14.422;2022-07-11T01:21:35;12.10;99.90
1359;DHT22;673;48.098;14.422;2022-07-11T01:24:06;12.00;99.90
1359;DHT22;673;48.098;14.422;2022-07-11T01:26:34;12.00;99.90
1359;DHT22;673;48.098;14.422;2022-07-11T01:29:05;11.90;99.90
1359;DHT22;673;48.098;14.422;2022-07-11T01:31:32;11.90;99.90
1359;DHT22;673;48.098;14.422;2022-07-11T01:33:59;11.80;99.90
1359;DHT22;673;48.098;14.422;2022-07-11T01:36:26;11.70;99.90
1359;DHT22;673;48.098;14.422;2022-07-11T01:38:53;11.60;99.90
1359;DHT22;673;48.098;14.422;2022-07-11T01:41:22;11.60;99.90
1359;DHT22;673;48.098;14.422;2022-07-11T01:43:49;11.60;99.90
1359;DHT22;673;48.098;14.422;2022-07-11T01:46:16;11.60;99.90
1359;DHT22;673;48.098;14.422;2022-07-11T01:48:44;11.60;99.90
1359;DHT22;673;48.098;14.422;2022-07-11T01:51:11;11.60;99.90
1359;DHT22;673;48.098;14.422;2022-07-11T01:53:38;11.60;99.90
1359;DHT22;673;48.098;14.422;2022-07-11T01:56:06;11.50;99.90
1359;DHT22;673;48.098;14.422;2022-07-11T01:58:34;11.50;99.90
1359;DHT22;673;48.098;14.422;2022-07-11T02:01:01;11.60;99.90
1359;DHT22;673;48.098;14.422;2022-07-11T02:03:28;11.60;99.90
1359;DHT22;673;48.098;14.422;2022-07-11T02:05:55;11.70;99.90
1359;DHT22;673;48.098;14.422;2022-07-11T02:08:22;11.70;99.90
1359;DHT22;673;48.098;14.422;2022-07-11T02:10:51;11.70;99.90
1359;DHT22;673;48.098;14.422;2022-07-11T02:13:19;11.60;99.90
1359;DHT22;673;48.098;14.422;2022-07-11T02:15:48;11.60;99.90
1359;DHT22;673;48.098;14.422;2022-07-11T02:18:16;11.60;99.90
1359;DHT22;673;48.098;14.422;2022-07-11T02:20:44;11.60;99.90
1359;DHT22;673;48.098;14.422;2022-07-11T02:23:14;11.60;99.90
1359;DHT22;673;48.098;14.422;2022-07-11T02:25:41;11.70;99.90
1359;DHT22;673;48.098;14.422;2022-07-11T02:28:09;11.80;99.90
1359;DHT22;673;48.098;14.422;2022-07-11T02:30:36;11.80;99.90
1359;DHT22;673;48.098;14.422;2022-07-11T02:33:05;11.80;99.90
1359;DHT22;673;48.098;14.422;2022-07-11T02:35:33;11.90;99.90
1359;DHT22;673;48.098;14.422;2022-07-11T02:38:01;11.90;99.90
1359;DHT22;673;48.098;14.422;2022-07-11T02:40:28;12.00;99.90
1359;DHT22;673;48.098;14.422;2022-07-11T02:42:55;12.10;99.90
1359;DHT22;673;48.098;14.422;2022-07-11T02:45:22;12.10;99.90
1359;DHT22;673;48.098;14.422;2022-07-11T02:47:49;12.20;99.90
1359;DHT22;673;48.098;14.422;2022-07-11T02:50:18;12.20;99.90
1359;DHT22;673;48.098;14.422;2022-07-11T02:52:45;12.30;99.90
1359;DHT22;673;48.098;14.422;2022-07-11T02:55:13;12.30;99.90
1359;DHT22;673;48.098;14.422;2022-07-11T02:57:41;12.30;99.90
1359;DHT22;673;48.098;14.422;2022-07-11T03:00:11;12.30;99.90
1359;DHT22;673;48.098;14.422;2022-07-11T03:02:39;12.40;99.90
1359;DHT22;673;48.098;14.422;2022-07-11T03:05:07;12.40;99.90
1359;DHT22;673;48.098;14.422;2022-07-11T03:07:35;12.40;99.90
1359;DHT22;673;48.098;14.422;2022-07-11T03:10:02;12.40;99.90
1359;DHT22;673;48.098;14.422;2022-07-11T03:12:29;12.40;99.90
1359;DHT22;673;48.098;14.422;2022-07-11T03:14:57;12.40;99.90
1359;DHT22;673;48.098;14.422;2022-07-11T03:17:24;12.50;99.90
1359;DHT22;673;48.098;14.422;2022-07-11T03:19:51;12.50;99.90
1359;DHT22;673;48.098;14.422;2022-07-11T03:22:18;12.50;99.90
1359;DHT22;673;48.098;14.422;2022-07-11T03:24:46;12.60;99.90
1359;DHT22;673;48.098;14.422;2022-07-11T03:27:13;12.60;99.90
1359;DHT22;673;48.098;14.422;2022-07-11T03:29:40;12.60;99.90
1359;DHT22;673;48.098;14.422;2022-07-11T03:32:08;12.60;99.90
1359;DHT22;673;48.098;14.422;2022-07-11T03:34:35;12.60;99.90
1359;DHT22;673;48.098;14.422;2022-07-11T03:37:02;12.60;99.90
1359;DHT22;673;48.098;14.422;2022-07-11T03:39:30;12.60;99.90
1359;DHT22;673;48.098;14.422;2022-07-11T03:41:58;12.60;99.90
1359;DHT22;673;48.098;14.422;2022-07-11T03:44:26;12.60;99.90
1359;DHT22;673;48.098;14.422;2022-07-11T03:46:53;12.60;99.90
1359;DHT22;673;48.098;14.422;2022-07-11T03:49:20;12.70;99.90
1359;DHT22;673;48.098;14.422;2022-07-11T03:51:47;12.70;99.90
1359;DHT22;673;48.098;14.422;2022-07-11T03:54:14;12.70;99.90
1359;DHT22;673;48.098;14.422;2022-07-11T03:56:41;12.70;99.90
1359;DHT22;673;48.098;14.422;2022-07-11T03:59:09;12.80;99.90
1359;DHT22;673;48.098;14.422;2022-07-11T04:01:36;12.80;99.90
1359;DHT22;673;48.098;14.422;2022-07-11T04:04:03;12.90;99.90
1359;DHT22;673;48.098;14.422;2022-07-11T04:06:34;12.90;99.90
1359;DHT22;673;48.098;14.422;2022-07-11T04:09:01;12.90;99.90
1359;DHT22;673;48.098;14.422;2022-07-11T04:11:28;13.00;99.90
1359;DHT22;673;48.098;14.422;2022-07-11T04:13:55;13.00;99.90
1359;DHT22;673;48.098;14.422;2022-07-11T04:16:24;13.10;99.90
1359;DHT22;673;48.098;14.422;2022-07-11T04:18:51;13.10;99.90
1359;DHT22;673;48.098;14.422;2022-07-11T04:21:18;13.20;99.90
1359;DHT22;673;48.098;14.422;2022-07-11T04:23:45;13.20;99.90
1359;DHT22;673;48.098;14.422;2022-07-11T04:26:13;13.30;99.90
1359;DHT22;673;48.098;14.422;2022-07-11T04:28:40;13.30;99.90
1359;DHT22;673;48.098;14.422;2022-07-11T04:31:07;13.40;99.90
1359;DHT22;673;48.098;14.422;2022-07-11T04:33:37;13.50;99.90
1359;DHT22;673;48.098;14.422;2022-07-11T04:36:05;13.60;99.90
1359;DHT22;673;48.098;14.422;2022-07-11T04:38:32;13.70;99.90
1359;DHT22;673;48.098;14.422;2022-07-11T04:40:59;13.80;99.90
1359;DHT22;673;48.098;14.422;2022-07-11T04:43:26;13.90;99.90
1359;DHT22;673;48.098;14.422;2022-07-11T04:45:53;13.90;99.90
1359;DHT22;673;48.098;14.422;2022-07-11T04:48:20;13.80;99.90
1359;DHT22;673;48.098;14.422;2022-07-11T04:50:48;13.80;99.90
1359;DHT22;673;48.098;14.422;2022-07-11T04:53:16;13.80;99.90
1359;DHT22;673;48.098;14.422;2022-07-11T04:55:43;13.90;99.90
1359;DHT22;673;48.098;14.422;2022-07-11T04:58:10;14.00;99.90
1359;DHT22;673;48.098;14.422;2022-07-11T05:00:38;14.00;99.90
1359;DHT22;673;48.098;14.422;2022-07-11T05:03:05;14.00;99.90
1359;DHT22;673;48.098;14.422;2022-07-11T05:05:32;14.10;99.90
1359;DHT22;673;48.098;14.422;2022-07-11T05:08:00;14.10;99.90
1359;DHT22;673;48.098;14.422;2022-07-11T05:10:27;14.20;99.90
1359;DHT22;673;48.098;14.422;2022-07-11T05:12:56;14.20;99.90
1359;DHT22;673;48.098;14.422;2022-07-11T05:15:23;14.20;99.90
1359;DHT22;673;48.098;14.422;2022-07-11T05:17:50;14.30;99.90
1359;DHT22;673;48.098;14.422;2022-07-11T05:20:18;14.30;99.90
1359;DHT22;673;48.098;14.422;2022-07-11T05:22:45;14.40;99.90
1359;DHT22;673;48.098;14.422;2022-07-11T05:25:13;14.30;99.90
1359;DHT22;673;48.098;14.422;2022-07-11T05:27:41;14.40;99.90
1359;DHT22;673;48.098;14.422;2022-07-11T05:30:09;14.50;99.90
1359;DHT22;673;48.098;14.422;2022-07-11T05:32:36;14.50;99.90
1359;DHT22;673;48.098;14.422;2022-07-11T05:35:03;14.60;99.90
1359;DHT22;673;48.098;14.422;2022-07-11T05:37:31;14.70;99.90
1359;DHT22;673;48.098;14.422;2022-07-11T05:39:58;14.80;99.90
1359;DHT22;673;48.098;14.422;2022-07-11T05:42:26;15.00;99.90
1359;DHT22;673;48.098;14.422;2022-07-11T05:44:54;15.10;99.90
1359;DHT22;673;48.098;14.422;2022-07-11T05:47:21;15.30;99.80
1359;DHT22;673;48.098;14.422;2022-07-11T05:49:48;15.30;99.70
1359;DHT22;673;48.098;14.422;2022-07-11T05:52:15;15.50;98.80
1359;DHT22;673;48.098;14.422;2022-07-11T05:54:42;15.60;98.70
1359;DHT22;673;48.098;14.422;2022-07-11T05:57:09;15.60;99.10
1359;DHT22;673;48.098;14.422;2022-07-11T05:59:38;15.70;98.90
1359;DHT22;673;48.098;14.422;2022-07-11T06:02:05;15.70;98.40
1359;DHT22;673;48.098;14.422;2022-07-11T06:04:32;15.70;98.10
1359;DHT22;673;48.098;14.422;2022-07-11T06:07:00;15.70;98.00
1359;DHT22;673;48.098;14.422;2022-07-11T06:09:27;15.80;97.80
1359;DHT22;673;48.098;14.422;2022-07-11T06:11:53;15.80;98.20
1359;DHT22;673;48.098;14.422;2022-07-11T06:14:20;15.70;97.70
1359;DHT22;673;48.098;14.422;2022-07-11T06:16:49;15.80;97.80
1359;DHT22;673;48.098;14.422;2022-07-11T06:19:16;15.70;98.10
1359;DHT22;673;48.098;14.422;2022-07-11T06:21:43;15.90;98.40
1359;DHT22;673;48.098;14.422;2022-07-11T06:24:10;15.90;98.20
1359;DHT22;673;48.098;14.422;2022-07-11T06:26:38;15.90;98.50
1359;DHT22;673;48.098;14.422;2022-07-11T06:29:05;15.80;98.10
1359;DHT22;673;48.098;14.422;2022-07-11T06:31:33;15.70;98.60
1359;DHT22;673;48.098;14.422;2022-07-11T06:34:01;15.70;98.90
1359;DHT22;673;48.098;14.422;2022-07-11T06:36:28;15.90;99.60
1359;DHT22;673;48.098;14.422;2022-07-11T06:38:55;16.00;98.80
1359;DHT22;673;48.098;14.422;2022-07-11T06:41:23;15.90;98.50
1359;DHT22;673;48.098;14.422;2022-07-11T06:43:49;16.00;98.90
1359;DHT22;673;48.098;14.422;2022-07-11T06:46:17;16.10;98.50
1359;DHT22;673;48.098;14.422;2022-07-11T06:48:44;16.20;97.90
1359;DHT22;673;48.098;14.422;2022-07-11T06:51:12;16.20;98.20
1359;DHT22;673;48.098;14.422;2022-07-11T06:53:40;16.10;98.30
1359;DHT22;673;48.098;14.422;2022-07-11T06:56:07;16.00;98.10
1359;DHT22;673;48.098;14.422;2022-07-11T06:58:34;16.00;98.40
1359;DHT22;673;48.098;14.422;2022-07-11T07:01:03;16.20;97.50
1359;DHT22;673;48.098;14.422;2022-07-11T07:03:32;16.30;97.00
1359;DHT22;673;48.098;14.422;2022-07-11T07:06:00;16.30;97.10
1359;DHT22;673;48.098;14.422;2022-07-11T07:08:30;16.60;98.10
1359;DHT22;673;48.098;14.422;2022-07-11T07:10:57;16.60;97.00
1359;DHT22;673;48.098;14.422;2022-07-11T07:13:24;16.90;96.50
1359;DHT22;673;48.098;14.422;2022-07-11T07:15:55;17.10;96.80
1359;DHT22;673;48.098;14.422;2022-07-11T07:18:22;17.20;95.20
1359;DHT22;673;48.098;14.422;2022-07-11T07:20:50;17.00;95.10
1359;DHT22;673;48.098;14.422;2022-07-11T07:23:17;17.10;95.80
1359;DHT22;673;48.098;14.422;2022-07-11T07:25:46;17.30;96.50
1359;DHT22;673;48.098;14.422;2022-07-11T07:28:13;17.40;95.80
1359;DHT22;673;48.098;14.422;2022-07-11T07:30:40;17.50;95.80
1359;DHT22;673;48.098;14.422;2022-07-11T07:33:07;17.70;96.20
1359;DHT22;673;48.098;14.422;2022-07-11T07:35:34;17.80;95.30
1359;DHT22;673;48.098;14.422;2022-07-11T07:38:02;17.90;96.20
1359;DHT22;673;48.098;14.422;2022-07-11T07:40:32;17.70;94.90
1359;DHT22;673;48.098;14.422;2022-07-11T07:43:01;17.40;94.90
1359;DHT22;673;48.098;14.422;2022-07-11T07:45:28;17.90;95.20
1359;DHT22;673;48.098;14.422;2022-07-11T07:47:55;18.50;94.30
1359;DHT22;673;48.098;14.422;2022-07-11T07:50:22;18.50;93.80
1359;DHT22;673;48.098;14.422;2022-07-11T07:52:50;18.40;93.20
1359;DHT22;673;48.098;14.422;2022-07-11T07:55:17;18.50;93.70
1359;DHT22;673;48.098;14.422;2022-07-11T07:57:44;18.40;92.90
1359;DHT22;673;48.098;14.422;2022-07-11T08:00:13;18.30;93.30
1359;DHT22;673;48.098;14.422;2022-07-11T08:03:03;18.20;93.60
1359;DHT22;673;48.098;14.422;2022-07-11T08:05:30;18.20;93.70
1359;DHT22;673;48.098;14.422;2022-07-11T08:07:57;18.70;93.80
1359;DHT22;673;48.098;14.422;2022-07-11T08:10:25;19.00;92.80
1359;DHT22;673;48.098;14.422;2022-07-11T08:12:52;19.10;92.80
1359;DHT22;673;48.098;14.422;2022-07-11T08:15:21;18.90;92.50
1359;DHT22;673;48.098;14.422;2022-07-11T08:17:48;19.10;93.10
1359;DHT22;673;48.098;14.422;2022-07-11T08:20:15;19.70;91.50
1359;DHT22;673;48.098;14.422;2022-07-11T08:22:42;19.80;91.00
1359;DHT22;673;48.098;14.422;2022-07-11T08:25:09;19.70;91.40
1359;DHT22;673;48.098;14.422;2022-07-11T08:27:37;19.40;90.30
1359;DHT22;673;48.098;14.422;2022-07-11T08:30:07;19.30;90.60
1359;DHT22;673;48.098;14.422;2022-07-11T08:32:37;19.30;92.00
1359;DHT22;673;48.098;14.422;2022-07-11T08:35:06;19.30;92.30
1359;DHT22;673;48.098;14.422;2022-07-11T08:37:33;19.10;91.30
1359;DHT22;673;48.098;14.422;2022-07-11T08:40:02;18.70;91.70
1359;DHT22;673;48.098;14.422;2022-07-11T08:42:40;18.30;92.30
1359;DHT22;673;48.098;14.422;2022-07-11T08:45:14;18.30;92.80
1359;DHT22;673;48.098;14.422;2022-07-11T08:47:43;18.00;93.30
1359;DHT22;673;48.098;14.422;2022-07-11T08:50:12;18.10;93.40
1359;DHT22;673;48.098;14.422;2022-07-11T08:52:39;18.00;94.10
1359;DHT22;673;48.098;14.422;2022-07-11T08:55:07;18.10;94.60
1359;DHT22;673;48.098;14.422;2022-07-11T08:57:35;18.40;94.20
1359;DHT22;673;48.098;14.422;2022-07-11T09:00:05;18.70;92.70
1359;DHT22;673;48.098;14.422;2022-07-11T09:02:33;18.80;92.50
1359;DHT22;673;48.098;14.422;2022-07-11T09:05:02;19.00;92.30
1359;DHT22;673;48.098;14.422;2022-07-11T09:07:31;19.80;93.50
1359;DHT22;673;48.098;14.422;2022-07-11T09:10:02;20.00;91.90
1359;DHT22;673;48.098;14.422;2022-07-11T09:13:00;20.00;90.90
1359;DHT22;673;48.098;14.422;2022-07-11T09:15:37;19.40;90.90
1359;DHT22;673;48.098;14.422;2022-07-11T09:18:05;19.40;91.40
1359;DHT22;673;48.098;14.422;2022-07-11T09:21:02;19.20;91.30
1359;DHT22;673;48.098;14.422;2022-07-11T09:23:47;19.50;92.10
1359;DHT22;673;48.098;14.422;2022-07-11T09:26:34;19.40;91.20
1359;DHT22;673;48.098;14.422;2022-07-11T09:29:05;19.00;91.30
1359;DHT22;673;48.098;14.422;2022-07-11T09:31:33;18.90;91.40
1359;DHT22;673;48.098;14.422;2022-07-11T09:34:02;19.00;91.60
1359;DHT22;673;48.098;14.422;2022-07-11T09:36:42;18.90;91.50
1359;DHT22;673;48.098;14.422;2022-07-11T09:39:12;18.60;91.80
1359;DHT22;673;48.098;14.422;2022-07-11T09:41:39;18.40;92.70
1359;DHT22;673;48.098;14.422;2022-07-11T09:44:14;18.40;92.50
1359;DHT22;673;48.098;14.422;2022-07-11T09:46:45;18.40;92.70
1359;DHT22;673;48.098;14.422;2022-07-11T09:49:13;18.30;93.00
1359;DHT22;673;48.098;14.422;2022-07-11T09:51:42;18.40;93.00
1359;DHT22;673;48.098;14.422;2022-07-11T09:54:10;18.40;93.10
1359;DHT22;673;48.098;14.422;2022-07-11T09:56:40;18.50;93.10
1359;DHT22;673;48.098;14.422;2022-07-11T09:59:10;18.60;93.70
1359;DHT22;673;48.098;14.422;2022-07-11T10:01:38;19.10;93.60
1359;DHT22;673;48.098;14.422;2022-07-11T10:04:07;19.10;93.00
1359;DHT22;673;48.098;14.422;2022-07-11T10:06:35;19.20;93.20
1359;DHT22;673;48.098;14.422;2022-07-11T10:09:05;19.70;93.10
1359;DHT22;673;48.098;14.422;2022-07-11T10:11:32;19.50;91.40
1359;DHT22;673;48.098;14.422;2022-07-11T10:14:01;19.40;91.60
1359;DHT22;673;48.098;14.422;2022-07-11T10:16:39;19.00;92.20
1359;DHT22;673;48.098;14.422;2022-07-11T10:19:25;19.20;93.80
1359;DHT22;673;48.098;14.422;2022-07-11T10:22:03;19.30;93.20
1359;DHT22;673;48.098;14.422;2022-07-11T10:24:38;19.10;92.70
1359;DHT22;673;48.098;14.422;2022-07-11T10:27:13;19.10;93.40
1359;DHT22;673;48.098;14.422;2022-07-11T10:29:48;18.80;93.10
1359;DHT22;673;48.098;14.422;2022-07-11T10:32:15;19.00;93.90
1359;DHT22;673;48.098;14.422;2022-07-11T10:34:43;19.20;93.90
1359;DHT22;673;48.098;14.422;2022-07-11T10:37:10;19.10;93.70
1359;DHT22;673;48.098;14.422;2022-07-11T10:39:56;19.20;94.70
1359;DHT22;673;48.098;14.422;2022-07-11T10:42:37;18.80;94.80
1359;DHT22;673;48.098;14.422;2022-07-11T10:45:07;18.50;95.80
1359;DHT22;673;48.098;14.422;2022-07-11T10:47:41;18.20;96.40
1359;DHT22;673;48.098;14.422;2022-07-11T10:50:25;18.10;97.30
1359;DHT22;673;48.098;14.422;2022-07-11T10:52:57;17.50;99.10
1359;DHT22;673;48.098;14.422;2022-07-11T10:55:35;16.90;99.90
1359;DHT22;673;48.098;14.422;2022-07-11T10:58:13;16.60;99.90
1359;DHT22;673;48.098;14.422;2022-07-11T11:00:45;16.50;99.90
1359;DHT22;673;48.098;14.422;2022-07-11T11:03:13;16.30;99.90
1359;DHT22;673;48.098;14.422;2022-07-11T11:05:46;16.60;99.90
1359;DHT22;673;48.098;14.422;2022-07-11T11:08:43;16.70;99.90
1359;DHT22;673;48.098;14.422;2022-07-11T11:11:39;16.70;99.90
1359;DHT22;673;48.098;14.422;2022-07-11T11:14:18;16.80;99.90
1359;DHT22;673;48.098;14.422;2022-07-11T11:16:46;17.10;99.90
1359;DHT22;673;48.098;14.422;2022-07-11T11:22:14;17.60;99.90
1359;DHT22;673;48.098;14.422;2022-07-11T11:24:42;17.70;99.90
1359;DHT22;673;48.098;14.422;2022-07-11T11:27:16;17.90;99.90
1359;DHT22;673;48.098;14.422;2022-07-11T11:29:45;17.80;99.90
1359;DHT22;673;48.098;14.422;2022-07-11T11:32:12;17.70;99.90
1359;DHT22;673;48.098;14.422;2022-07-11T11:34:40;17.70;99.90
1359;DHT22;673;48.098;14.422;2022-07-11T11:37:07;17.60;99.90
1359;DHT22;673;48.098;14.422;2022-07-11T11:39:37;17.90;99.90
1359;DHT22;673;48.098;14.422;2022-07-11T11:42:07;18.20;99.90
1359;DHT22;673;48.098;14.422;2022-07-11T11:44:51;18.40;99.90
1359;DHT22;673;48.098;14.422;2022-07-11T11:47:19;18.70;99.90
1359;DHT22;673;48.098;14.422;2022-07-11T11:49:47;19.50;99.50
1359;DHT22;673;48.098;14.422;2022-07-11T11:52:15;19.30;96.50
1359;DHT22;673;48.098;14.422;2022-07-11T11:54:43;19.00;98.80
1359;DHT22;673;48.098;14.422;2022-07-11T11:57:12;18.40;98.60
1359;DHT22;673;48.098;14.422;2022-07-11T11:59:41;18.30;98.90
1359;DHT22;673;48.098;14.422;2022-07-11T12:02:08;18.30;99.00
1359;DHT22;673;48.098;14.422;2022-07-11T12:04:36;18.30;99.20
1359;DHT22;673;48.098;14.422;2022-07-11T12:07:04;18.30;98.40
1359;DHT22;673;48.098;14.422;2022-07-11T12:09:31;18.40;98.20
1359;DHT22;673;48.098;14.422;2022-07-11T12:12:19;18.50;97.20
1359;DHT22;673;48.098;14.422;2022-07-11T12:15:07;18.90;97.70
1359;DHT22;673;48.098;14.422;2022-07-11T12:17:50;19.30;96.50
1359;DHT22;673;48.098;14.422;2022-07-11T12:20:34;19.30;96.80
1359;DHT22;673;48.098;14.422;2022-07-11T12:23:01;19.00;95.80
1359;DHT22;673;48.098;14.422;2022-07-11T12:25:30;18.90;95.90
1359;DHT22;673;48.098;14.422;2022-07-11T12:27:57;18.80;96.80
1359;DHT22;673;48.098;14.422;2022-07-11T12:30:26;18.70;95.90
1359;DHT22;673;48.098;14.422;2022-07-11T12:33:06;18.90;95.90
1359;DHT22;673;48.098;14.422;2022-07-11T12:35:34;19.10;95.60
1359;DHT22;673;48.098;14.422;2022-07-11T12:38:02;19.30;95.70
1359;DHT22;673;48.098;14.422;2022-07-11T12:40:29;19.30;95.40
1359;DHT22;673;48.098;14.422;2022-07-11T12:42:57;19.40;95.60
1359;DHT22;673;48.098;14.422;2022-07-11T12:45:24;19.50;95.80
1359;DHT22;673;48.098;14.422;2022-07-11T12:47:51;19.40;94.80
1359;DHT22;673;48.098;14.422;2022-07-11T12:50:21;19.40;95.60
1359;DHT22;673;48.098;14.422;2022-07-11T12:52:50;19.50;95.60
1359;DHT22;673;48.098;14.422;2022-07-11T12:55:25;19.40;94.20
1359;DHT22;673;48.098;14.422;2022-07-11T12:58:01;19.10;95.20
1359;DHT22;673;48.098;14.422;2022-07-11T13:00:29;19.10;95.40
1359;DHT22;673;48.098;14.422;2022-07-11T13:02:58;19.10;94.30
1359;DHT22;673;48.098;14.422;2022-07-11T13:05:25;19.10;94.40
1359;DHT22;673;48.098;14.422;2022-07-11T13:07:52;19.20;95.10
1359;DHT22;673;48.098;14.422;2022-07-11T13:10:37;19.40;95.90
1359;DHT22;673;48.098;14.422;2022-07-11T13:13:18;19.40;94.80
1359;DHT22;673;48.098;14.422;2022-07-11T13:15:46;19.50;94.70
1359;DHT22;673;48.098;14.422;2022-07-11T13:18:15;19.50;94.40
1359;DHT22;673;48.098;14.422;2022-07-11T13:20:42;19.60;95.20
1359;DHT22;673;48.098;14.422;2022-07-11T13:23:09;19.50;95.00
1359;DHT22;673;48.098;14.422;2022-07-11T13:25:36;19.50;95.00
1359;DHT22;673;48.098;14.422;2022-07-11T13:28:03;19.30;94.80
1359;DHT22;673;48.098;14.422;2022-07-11T13:30:33;19.30;95.20
1359;DHT22;673;48.098;14.422;2022-07-11T13:33:00;19.40;95.40
1359;DHT22;673;48.098;14.422;2022-07-11T13:35:28;19.40;95.10
1359;DHT22;673;48.098;14.422;2022-07-11T13:37:55;19.40;95.00
1359;DHT22;673;48.098;14.422;2022-07-11T13:40:23;19.30;95.40
1359;DHT22;673;48.098;14.422;2022-07-11T13:42:51;19.40;94.90
1359;DHT22;673;48.098;14.422;2022-07-11T13:45:20;19.60;94.50
1359;DHT22;673;48.098;14.422;2022-07-11T13:47:48;19.50;94.80
1359;DHT22;673;48.098;14.422;2022-07-11T13:50:16;19.50;94.80
1359;DHT22;673;48.098;14.422;2022-07-11T13:52:44;19.30;94.90
1359;DHT22;673;48.098;14.422;2022-07-11T13:55:14;19.10;95.00
1359;DHT22;673;48.098;14.422;2022-07-11T13:57:41;19.20;95.60
1359;DHT22;673;48.098;14.422;2022-07-11T14:00:10;19.40;95.20
1359;DHT22;673;48.098;14.422;2022-07-11T14:02:37;19.60;95.00
1359;DHT22;673;48.098;14.422;2022-07-11T14:05:05;19.90;95.20
1359;DHT22;673;48.098;14.422;2022-07-11T14:07:32;19.70;94.20
1359;DHT22;673;48.098;14.422;2022-07-11T14:10:00;19.60;94.30
1359;DHT22;673;48.098;14.422;2022-07-11T14:12:28;19.50;94.80
1359;DHT22;673;48.098;14.422;2022-07-11T14:14:56;19.40;94.70
1359;DHT22;673;48.098;14.422;2022-07-11T14:17:24;19.40;95.20
1359;DHT22;673;48.098;14.422;2022-07-11T14:19:51;19.40;95.00
1359;DHT22;673;48.098;14.422;2022-07-11T14:22:19;19.20;95.00
1359;DHT22;673;48.098;14.422;2022-07-11T14:24:46;19.30;95.00
1359;DHT22;673;48.098;14.422;2022-07-11T14:27:15;19.30;94.50
1359;DHT22;673;48.098;14.422;2022-07-11T14:29:43;19.10;95.00
1359;DHT22;673;48.098;14.422;2022-07-11T14:32:11;19.00;95.40
1359;DHT22;673;48.098;14.422;2022-07-11T14:34:39;19.00;95.60
1359;DHT22;673;48.098;14.422;2022-07-11T14:37:06;19.40;94.80
1359;DHT22;673;48.098;14.422;2022-07-11T14:39:33;20.00;94.10
1359;DHT22;673;48.098;14.422;2022-07-11T14:42:00;20.80;94.40
1359;DHT22;673;48.098;14.422;2022-07-11T14:44:29;21.10;92.50
1359;DHT22;673;48.098;14.422;2022-07-11T14:46:56;21.30;91.10
1359;DHT22;673;48.098;14.422;2022-07-11T14:49:23;21.20;92.50
1359;DHT22;673;48.098;14.422;2022-07-11T14:51:51;21.10;92.60
1359;DHT22;673;48.098;14.422;2022-07-11T14:54:19;20.90;92.70
1359;DHT22;673;48.098;14.422;2022-07-11T14:56:47;21.10;92.20
1359;DHT22;673;48.098;14.422;2022-07-11T14:59:14;21.00;91.40
1359;DHT22;673;48.098;14.422;2022-07-11T15:01:42;20.90;92.10
1359;DHT22;673;48.098;14.422;2022-07-11T15:04:09;20.50;91.60
1359;DHT22;673;48.098;14.422;2022-07-11T15:06:36;20.40;92.00
1359;DHT22;673;48.098;14.422;2022-07-11T15:09:21;20.50;91.50
1359;DHT22;673;48.098;14.422;2022-07-11T15:12:07;20.70;92.80
1359;DHT22;673;48.098;14.422;2022-07-11T15:14:56;20.90;91.00
1359;DHT22;673;48.098;14.422;2022-07-11T15:17:27;21.00;91.90
1359;DHT22;673;48.098;14.422;2022-07-11T15:20:08;20.80;91.70
1359;DHT22;673;48.098;14.422;2022-07-11T15:22:38;21.10;91.90
1359;DHT22;673;48.098;14.422;2022-07-11T15:25:06;21.70;91.70
1359;DHT22;673;48.098;14.422;2022-07-11T15:27:33;21.90;90.50
1359;DHT22;673;48.098;14.422;2022-07-11T15:30:00;22.60;90.60
1359;DHT22;673;48.098;14.422;2022-07-11T15:32:30;22.90;90.80
1359;DHT22;673;48.098;14.422;2022-07-11T15:34:57;22.70;88.40
1359;DHT22;673;48.098;14.422;2022-07-11T15:37:24;21.50;91.10
1359;DHT22;673;48.098;14.422;2022-07-11T15:39:51;21.50;92.00
1359;DHT22;673;48.098;14.422;2022-07-11T15:42:18;22.10;91.60
1359;DHT22;673;48.098;14.422;2022-07-11T15:44:45;22.30;89.40
1359;DHT22;673;48.098;14.422;2022-07-11T15:47:12;22.40;88.60
1359;DHT22;673;48.098;14.422;2022-07-11T15:49:41;23.00;88.70
1359;DHT22;673;48.098;14.422;2022-07-11T15:52:08;23.20;85.10
1359;DHT22;673;48.098;14.422;2022-07-11T15:54:36;22.60;86.00
1359;DHT22;673;48.098;14.422;2022-07-11T15:57:03;21.70;88.10
1359;DHT22;673;48.098;14.422;2022-07-11T15:59:30;21.10;90.40
1359;DHT22;673;48.098;14.422;2022-07-11T16:01:59;21.40;90.40
1359;DHT22;673;48.098;14.422;2022-07-11T16:04:26;22.10;89.10
1359;DHT22;673;48.098;14.422;2022-07-11T16:06:55;22.40;84.70
1359;DHT22;673;48.098;14.422;2022-07-11T16:09:22;22.80;83.30
1359;DHT22;673;48.098;14.422;2022-07-11T16:11:49;22.90;81.60
1359;DHT22;673;48.098;14.422;2022-07-11T16:14:16;22.90;81.70
1359;DHT22;673;48.098;14.422;2022-07-11T16:16:44;22.60;80.90
1359;DHT22;673;48.098;14.422;2022-07-11T16:19:11;22.90;81.10